sensor_id;sensor_type;location;lat;lon;timestamp;pressure;altitude;pressure_sealevel;temperature;humidity
39411;BME280;26579;43.238;23.124;2023-02-15T00:01:52;98289.06;;;3.45;55.05
39411;BME280;26579;43.238;23.124;2023-02-15T00:04:23;98300.72;;;3.57;55.15
39411;BME280;26579;43.238;23.124;2023-02-15T00:06:49;98312.50;;;3.64;54.83
39411;BME280;26579;43.238;23.124;2023-02-15T00:09:16;98307.41;;;3.62;55.24
39411;BME280;26579;43.238;23.124;2023-02-15T00:11:42;98313.59;;;3.57;55.38
39411;BME280;26579;43.238;23.124;2023-02-15T00:14:18;98305.13;;;3.53;55.06
39411;BME280;26579;43.238;23.124;2023-02-15T00:16:44;98308.78;;;3.46;55.00
39411;BME280;26579;43.238;23.124;2023-02-15T00:19:11;98286.81;;;3.34;55.07
39411;BME280;26579;43.238;23.124;2023-02-15T00:21:39;98312.78;;;3.55;55.05
39411;BME280;26579;43.238;23.124;2023-02-15T00:24:08;98305.13;;;3.53;55.53
39411;BME280;26579;43.238;23.124;2023-02-15T00:26:34;98311.38;;;3.46;55.39
39411;BME280;26579;43.238;23.124;2023-02-15T00:29:00;98316.31;;;3.52;55.08
39411;BME280;26579;43.238;23.124;2023-02-15T00:31:31;98318.84;;;3.54;55.62
39411;BME280;26579;43.238;23.124;2023-02-15T00:34:19;98323.16;;;3.53;55.39
39411;BME280;26579;43.238;23.124;2023-02-15T00:36:46;98315.41;;;3.53;55.24
39411;BME280;26579;43.238;23.124;2023-02-15T00:39:14;98316.16;;;3.57;55.39
39411;BME280;26579;43.238;23.124;2023-02-15T00:41:41;98318.03;;;3.52;55.36
39411;BME280;26579;43.238;23.124;2023-02-15T00:44:06;98322.25;;;3.54;55.10
39411;BME280;26579;43.238;23.124;2023-02-15T00:46:32;98325.50;;;3.61;54.84
39411;BME280;26579;43.238;23.124;2023-02-15T00:48:58;98322.75;;;3.66;55.03
39411;BME280;26579;43.238;23.124;2023-02-15T00:51:25;98306.84;;;3.53;55.87
39411;BME280;26579;43.238;23.124;2023-02-15T00:53:51;98324.91;;;3.51;55.58
39411;BME280;26579;43.238;23.124;2023-02-15T00:56:16;98331.06;;;3.47;55.43
39411;BME280;26579;43.238;23.124;2023-02-15T00:58:42;98330.13;;;3.50;55.62
39411;BME280;26579;43.238;23.124;2023-02-15T01:01:11;98331.78;;;3.52;55.44
39411;BME280;26579;43.238;23.124;2023-02-15T01:03:37;98328.28;;;3.53;55.32
39411;BME280;26579;43.238;23.124;2023-02-15T01:06:03;98322.13;;;3.59;54.96
39411;BME280;26579;43.238;23.124;2023-02-15T01:08:29;98311.09;;;3.54;55.20
39411;BME280;26579;43.238;23.124;2023-02-15T01:10:55;98321.28;;;3.58;55.52
39411;BME280;26579;43.238;23.124;2023-02-15T01:13:21;98308.63;;;3.51;55.46
39411;BME280;26579;43.238;23.124;2023-02-15T01:15:56;98309.66;;;3.45;55.42
39411;BME280;26579;43.238;23.124;2023-02-15T01:18:22;98308.00;;;3.44;55.68
39411;BME280;26579;43.238;23.124;2023-02-15T01:20:48;98311.94;;;3.54;56.11
39411;BME280;26579;43.238;23.124;2023-02-15T01:23:14;98315.47;;;3.52;55.42
39411;BME280;26579;43.238;23.124;2023-02-15T01:25:40;98306.25;;;3.45;56.15
39411;BME280;26579;43.238;23.124;2023-02-15T01:28:07;98296.78;;;3.45;56.22
39411;BME280;26579;43.238;23.124;2023-02-15T01:30:33;98281.66;;;3.34;56.10
39411;BME280;26579;43.238;23.124;2023-02-15T01:32:59;98298.41;;;3.49;55.63
39411;BME280;26579;43.238;23.124;2023-02-15T01:35:24;98293.78;;;3.59;55.99
39411;BME280;26579;43.238;23.124;2023-02-15T01:37:50;98292.97;;;3.57;56.08
39411;BME280;26579;43.238;23.124;2023-02-15T01:40:18;98280.53;;;3.43;55.87
39411;BME280;26579;43.238;23.124;2023-02-15T01:42:44;98279.88;;;3.38;56.40
39411;BME280;26579;43.238;23.124;2023-02-15T01:45:31;98282.25;;;3.44;56.49
39411;BME280;26579;43.238;23.124;2023-02-15T01:48:17;98275.22;;;3.49;55.78
39411;BME280;26579;43.238;23.124;2023-02-15T01:50:47;98256.50;;;3.44;56.41
39411;BME280;26579;43.238;23.124;2023-02-15T01:53:19;98259.22;;;3.39;56.02
39411;BME280;26579;43.238;23.124;2023-02-15T01:55:54;98282.25;;;3.44;56.53
39411;BME280;26579;43.238;23.124;2023-02-15T01:58:21;98282.97;;;3.48;56.18
39411;BME280;26579;43.238;23.124;2023-02-15T02:00:48;98281.31;;;3.47;56.60
39411;BME280;26579;43.238;23.124;2023-02-15T02:03:14;98271.38;;;3.34;56.63
39411;BME280;26579;43.238;23.124;2023-02-15T02:05:40;98284.91;;;3.41;56.53
39411;BME280;26579;43.238;23.124;2023-02-15T02:08:07;98282.34;;;3.41;56.52
39411;BME280;26579;43.238;23.124;2023-02-15T02:10:33;98293.19;;;3.51;56.77
39411;BME280;26579;43.238;23.124;2023-02-15T02:13:03;98300.78;;;3.55;56.70
39411;BME280;26579;43.238;23.124;2023-02-15T02:15:47;98295.91;;;3.46;57.05
39411;BME280;26579;43.238;23.124;2023-02-15T02:34:42;98319.22;;;3.42;56.93
39411;BME280;26579;43.238;23.124;2023-02-15T02:37:19;98303.72;;;3.43;56.90
39411;BME280;26579;43.238;23.124;2023-02-15T02:40:51;98308.09;;;3.41;57.38
39411;BME280;26579;43.238;23.124;2023-02-15T02:43:16;98310.78;;;3.36;57.41
39411;BME280;26579;43.238;23.124;2023-02-15T02:45:52;98299.75;;;3.33;57.31
39411;BME280;26579;43.238;23.124;2023-02-15T02:48:27;98309.97;;;3.36;57.15
39411;BME280;26579;43.238;23.124;2023-02-15T02:50:54;98311.81;;;3.31;57.93
39411;BME280;26579;43.238;23.124;2023-02-15T02:53:20;98314.75;;;3.20;57.96
39411;BME280;26579;43.238;23.124;2023-02-15T03:04:04;98303.59;;;3.20;58.05
39411;BME280;26579;43.238;23.124;2023-02-15T03:06:43;98310.53;;;3.17;57.72
39411;BME280;26579;43.238;23.124;2023-02-15T03:11:49;98300.03;;;3.24;57.90
39411;BME280;26579;43.238;23.124;2023-02-15T03:14:18;98313.66;;;3.27;57.69
39411;BME280;26579;43.238;23.124;2023-02-15T03:16:47;98294.06;;;3.23;57.94
39411;BME280;26579;43.238;23.124;2023-02-15T03:19:17;98309.34;;;3.28;57.26
39411;BME280;26579;43.238;23.124;2023-02-15T03:21:48;98311.88;;;3.29;57.40
39411;BME280;26579;43.238;23.124;2023-02-15T03:24:17;98316.09;;;3.32;57.62
39411;BME280;26579;43.238;23.124;2023-02-15T03:26:49;98313.63;;;3.29;57.50
39411;BME280;26579;43.238;23.124;2023-02-15T03:29:17;98318.84;;;3.26;57.75
39411;BME280;26579;43.238;23.124;2023-02-15T03:31:47;98312.09;;;3.22;57.41
39411;BME280;26579;43.238;23.124;2023-02-15T03:34:15;98310.53;;;3.17;57.87
39411;BME280;26579;43.238;23.124;2023-02-15T03:39:59;98323.91;;;2.99;58.36
39411;BME280;26579;43.238;23.124;2023-02-15T03:42:33;98316.44;;;2.91;58.97
39411;BME280;26579;43.238;23.124;2023-02-15T03:47:39;98336.78;;;2.99;58.94
39411;BME280;26579;43.238;23.124;2023-02-15T03:50:12;98331.72;;;2.96;59.11
39411;BME280;26579;43.238;23.124;2023-02-15T03:52:39;98339.34;;;2.99;58.92
39411;BME280;26579;43.238;23.124;2023-02-15T03:55:05;98328.47;;;2.91;58.98
39411;BME280;26579;43.238;23.124;2023-02-15T03:57:31;98338.75;;;2.91;59.16
39411;BME280;26579;43.238;23.124;2023-02-15T03:59:58;98324.56;;;2.78;58.74
39411;BME280;26579;43.238;23.124;2023-02-15T04:02:25;98334.28;;;2.68;59.30
39411;BME280;26579;43.238;23.124;2023-02-15T04:04:53;98344.13;;;2.83;59.39
39411;BME280;26579;43.238;23.124;2023-02-15T04:07:19;98335.94;;;2.69;59.80
39411;BME280;26579;43.238;23.124;2023-02-15T04:09:45;98344.31;;;2.76;58.81
39411;BME280;26579;43.238;23.124;2023-02-15T04:12:10;98341.75;;;2.76;59.20
39411;BME280;26579;43.238;23.124;2023-02-15T04:14:36;98349.44;;;2.77;59.49
39411;BME280;26579;43.238;23.124;2023-02-15T04:17:08;98353.56;;;2.83;59.20
39411;BME280;26579;43.238;23.124;2023-02-15T04:19:34;98335.03;;;2.70;59.27
39411;BME280;26579;43.238;23.124;2023-02-15T04:22:00;98350.38;;;2.73;58.66
39411;BME280;26579;43.238;23.124;2023-02-15T04:24:26;98336.84;;;2.68;59.23
39411;BME280;26579;43.238;23.124;2023-02-15T04:26:51;98358.81;;;2.80;58.65
39411;BME280;26579;43.238;23.124;2023-02-15T04:29:17;98353.59;;;2.81;59.13
39411;BME280;26579;43.238;23.124;2023-02-15T04:31:43;98346.72;;;2.82;58.76
39411;BME280;26579;43.238;23.124;2023-02-15T04:34:09;98348.28;;;2.87;58.83
39411;BME280;26579;43.238;23.124;2023-02-15T04:36:35;98343.22;;;2.84;59.11
39411;BME280;26579;43.238;23.124;2023-02-15T04:39:00;98356.16;;;2.81;59.18
39411;BME280;26579;43.238;23.124;2023-02-15T04:41:26;98358.00;;;2.78;59.16
39411;BME280;26579;43.238;23.124;2023-02-15T04:43:52;98351.31;;;2.70;59.40
39411;BME280;26579;43.238;23.124;2023-02-15T04:46:17;98353.84;;;2.72;59.45
39411;BME280;26579;43.238;23.124;2023-02-15T04:48:43;98364.13;;;2.74;59.72
39411;BME280;26579;43.238;23.124;2023-02-15T04:51:09;98344.50;;;2.69;59.72
39411;BME280;26579;43.238;23.124;2023-02-15T04:53:35;98360.59;;;2.76;60.03
39411;BME280;26579;43.238;23.124;2023-02-15T04:56:01;98352.28;;;2.68;59.97
39411;BME280;26579;43.238;23.124;2023-02-15T04:58:27;98349.72;;;2.66;60.38
39411;BME280;26579;43.238;23.124;2023-02-15T05:00:56;98339.50;;;2.65;59.38
39411;BME280;26579;43.238;23.124;2023-02-15T05:03:22;98343.69;;;2.67;59.68
39411;BME280;26579;43.238;23.124;2023-02-15T05:05:47;98342.16;;;2.62;60.05
39411;BME280;26579;43.238;23.124;2023-02-15T05:08:13;98357.34;;;2.69;59.72
39411;BME280;26579;43.238;23.124;2023-02-15T05:10:39;98357.34;;;2.69;60.10
39411;BME280;26579;43.238;23.124;2023-02-15T05:13:05;98363.31;;;2.71;60.17
39411;BME280;26579;43.238;23.124;2023-02-15T05:15:30;98359.91;;;2.71;59.75
39411;BME280;26579;43.238;23.124;2023-02-15T05:17:56;98372.53;;;2.79;59.60
39411;BME280;26579;43.238;23.124;2023-02-15T05:20:22;98366.50;;;2.80;59.17
39411;BME280;26579;43.238;23.124;2023-02-15T05:22:47;98366.38;;;2.84;59.05
39411;BME280;26579;43.238;23.124;2023-02-15T05:25:13;98369.69;;;2.88;59.46
39411;BME280;26579;43.238;23.124;2023-02-15T05:27:39;98380.97;;;2.84;59.01
39411;BME280;26579;43.238;23.124;2023-02-15T05:30:05;98370.69;;;2.84;59.33
39411;BME280;26579;43.238;23.124;2023-02-15T05:32:31;98381.78;;;2.86;59.28
39411;BME280;26579;43.238;23.124;2023-02-15T05:34:56;98367.47;;;2.76;59.49
39411;BME280;26579;43.238;23.124;2023-02-15T05:37:22;98359.13;;;2.67;59.62
39411;BME280;26579;43.238;23.124;2023-02-15T05:39:48;98365.22;;;2.65;60.08
39411;BME280;26579;43.238;23.124;2023-02-15T05:42:13;98375.28;;;2.72;59.76
39411;BME280;26579;43.238;23.124;2023-02-15T05:44:39;98370.13;;;2.72;59.94
39411;BME280;26579;43.238;23.124;2023-02-15T05:47:05;98372.06;;;2.64;60.01
39411;BME280;26579;43.238;23.124;2023-02-15T05:49:30;98383.72;;;2.78;59.37
39411;BME280;26579;43.238;23.124;2023-02-15T05:51:56;98382.91;;;2.76;59.41
39411;BME280;26579;43.238;23.124;2023-02-15T05:54:22;98372.75;;;2.71;59.42
39411;BME280;26579;43.238;23.124;2023-02-15T05:56:47;98351.66;;;2.58;59.30
39411;BME280;26579;43.238;23.124;2023-02-15T05:59:13;98368.38;;;2.73;59.64
39411;BME280;26579;43.238;23.124;2023-02-15T06:01:39;98379.28;;;2.83;60.15
39411;BME280;26579;43.238;23.124;2023-02-15T06:04:04;98370.78;;;2.79;59.66
39411;BME280;26579;43.238;23.124;2023-02-15T06:06:30;98377.16;;;3.27;61.60
39411;BME280;26579;43.238;23.124;2023-02-15T06:08:56;98380.47;;;3.32;58.13
39411;BME280;26579;43.238;23.124;2023-02-15T06:11:21;98382.34;;;3.25;58.51
39411;BME280;26579;43.238;23.124;2023-02-15T06:13:47;98370.69;;;3.13;58.76
39411;BME280;26579;43.238;23.124;2023-02-15T06:16:13;98381.41;;;3.28;58.43
39411;BME280;26579;43.238;23.124;2023-02-15T06:18:38;98380.66;;;3.24;58.45
39411;BME280;26579;43.238;23.124;2023-02-15T06:21:04;98384.66;;;3.34;57.92
39411;BME280;26579;43.238;23.124;2023-02-15T06:23:30;98374.50;;;3.30;58.21
39411;BME280;26579;43.238;23.124;2023-02-15T06:25:55;98388.53;;;3.49;57.79
39411;BME280;26579;43.238;23.124;2023-02-15T06:28:21;98387.44;;;3.56;57.31
39411;BME280;26579;43.238;23.124;2023-02-15T06:30:47;98369.75;;;3.72;57.19
39411;BME280;26579;43.238;23.124;2023-02-15T06:33:15;98377.94;;;5.78;51.34
39411;BME280;26579;43.238;23.124;2023-02-15T06:35:40;98377.03;;;6.64;48.40
39411;BME280;26579;43.238;23.124;2023-02-15T06:38:06;98379.44;;;7.08;47.08
39411;BME280;26579;43.238;23.124;2023-02-15T06:40:32;98376.56;;;8.05;44.32
39411;BME280;26579;43.238;23.124;2023-02-15T06:42:57;98373.06;;;9.09;41.40
39411;BME280;26579;43.238;23.124;2023-02-15T06:45:23;98368.81;;;10.17;39.39
39411;BME280;26579;43.238;23.124;2023-02-15T06:47:49;98370.44;;;11.36;36.97
39411;BME280;26579;43.238;23.124;2023-02-15T06:50:14;98367.53;;;11.55;36.44
39411;BME280;26579;43.238;23.124;2023-02-15T06:52:40;98365.72;;;11.70;35.98
39411;BME280;26579;43.238;23.124;2023-02-15T06:55:06;98375.69;;;12.05;35.35
39411;BME280;26579;43.238;23.124;2023-02-15T06:57:31;98376.88;;;12.26;34.82
39411;BME280;26579;43.238;23.124;2023-02-15T06:59:57;98360.00;;;12.44;34.20
39411;BME280;26579;43.238;23.124;2023-02-15T07:02:23;98372.97;;;12.97;34.00
39411;BME280;26579;43.238;23.124;2023-02-15T07:04:48;98362.47;;;13.48;33.45
39411;BME280;26579;43.238;23.124;2023-02-15T07:07:16;98367.38;;;14.36;31.82
39411;BME280;26579;43.238;23.124;2023-02-15T07:09:42;98367.25;;;15.63;30.51
39411;BME280;26579;43.238;23.124;2023-02-15T07:12:10;98364.91;;;15.49;29.58
39411;BME280;26579;43.238;23.124;2023-02-15T07:14:36;98387.09;;;15.11;30.30
39411;BME280;26579;43.238;23.124;2023-02-15T07:17:01;98374.06;;;15.54;29.85
39411;BME280;26579;43.238;23.124;2023-02-15T07:19:27;98368.88;;;15.98;29.10
39411;BME280;26579;43.238;23.124;2023-02-15T07:21:53;98370.72;;;15.52;29.45
39411;BME280;26579;43.238;23.124;2023-02-15T07:24:18;98379.19;;;16.11;29.00
39411;BME280;26579;43.238;23.124;2023-02-15T07:26:44;98387.44;;;15.17;29.94
39411;BME280;26579;43.238;23.124;2023-02-15T07:29:10;98385.59;;;13.42;32.68
39411;BME280;26579;43.238;23.124;2023-02-15T07:31:36;98385.78;;;13.88;32.39
39411;BME280;26579;43.238;23.124;2023-02-15T07:34:01;98384.31;;;14.67;31.40
39411;BME280;26579;43.238;23.124;2023-02-15T07:36:27;98361.00;;;14.40;31.23
39411;BME280;26579;43.238;23.124;2023-02-15T07:38:53;98372.56;;;13.66;33.02
39411;BME280;26579;43.238;23.124;2023-02-15T07:41:18;98375.72;;;13.58;33.29
39411;BME280;26579;43.238;23.124;2023-02-15T07:43:47;98364.47;;;15.10;31.14
39411;BME280;26579;43.238;23.124;2023-02-15T07:46:14;98361.47;;;16.24;29.35
39411;BME280;26579;43.238;23.124;2023-02-15T07:48:41;98344.31;;;16.62;28.28
39411;BME280;26579;43.238;23.124;2023-02-15T07:51:11;98369.00;;;16.70;28.83
39411;BME280;26579;43.238;23.124;2023-02-15T07:53:37;98352.88;;;16.22;28.79
39411;BME280;26579;43.238;23.124;2023-02-15T07:56:14;98356.56;;;15.98;29.45
39411;BME280;26579;43.238;23.124;2023-02-15T07:58:43;98353.19;;;14.63;31.02
39411;BME280;26579;43.238;23.124;2023-02-15T08:01:08;98351.84;;;14.46;31.52
39411;BME280;26579;43.238;23.124;2023-02-15T08:03:34;98353.25;;;15.08;31.01
39411;BME280;26579;43.238;23.124;2023-02-15T08:06:00;98353.72;;;15.24;30.93
39411;BME280;26579;43.238;23.124;2023-02-15T08:08:29;98364.66;;;15.29;30.62
39411;BME280;26579;43.238;23.124;2023-02-15T08:11:21;98364.88;;;16.36;29.18
39411;BME280;26579;43.238;23.124;2023-02-15T08:13:50;98359.38;;;16.39;29.30
39411;BME280;26579;43.238;23.124;2023-02-15T08:16:20;98352.31;;;16.60;29.15
39411;BME280;26579;43.238;23.124;2023-02-15T08:18:49;98369.25;;;16.88;28.70
39411;BME280;26579;43.238;23.124;2023-02-15T08:21:15;98371.69;;;16.59;28.77
39411;BME280;26579;43.238;23.124;2023-02-15T08:23:42;98338.22;;;16.61;28.55
39411;BME280;26579;43.238;23.124;2023-02-15T08:26:08;98371.47;;;16.72;28.10
39411;BME280;26579;43.238;23.124;2023-02-15T08:28:33;98361.38;;;16.46;28.68
39411;BME280;26579;43.238;23.124;2023-02-15T08:31:10;98366.13;;;17.25;27.56
39411;BME280;26579;43.238;23.124;2023-02-15T08:33:40;98367.41;;;17.40;27.59
39411;BME280;26579;43.238;23.124;2023-02-15T08:36:14;98368.75;;;18.72;25.97
39411;BME280;26579;43.238;23.124;2023-02-15T08:38:44;98361.75;;;19.65;24.32
39411;BME280;26579;43.238;23.124;2023-02-15T08:41:22;98359.50;;;19.71;23.87
39411;BME280;26579;43.238;23.124;2023-02-15T08:43:49;98369.13;;;18.97;24.62
39411;BME280;26579;43.238;23.124;2023-02-15T08:46:17;98362.75;;;19.27;23.97
39411;BME280;26579;43.238;23.124;2023-02-15T08:48:43;98364.13;;;20.40;23.17
39411;BME280;26579;43.238;23.124;2023-02-15T08:51:19;98362.00;;;20.62;22.58
39411;BME280;26579;43.238;23.124;2023-02-15T08:53:47;98362.78;;;21.06;22.29
39411;BME280;26579;43.238;23.124;2023-02-15T08:56:13;98362.44;;;21.01;21.80
39411;BME280;26579;43.238;23.124;2023-02-15T08:58:39;98360.31;;;22.06;21.14
39411;BME280;26579;43.238;23.124;2023-02-15T09:01:13;98356.09;;;21.62;21.18
39411;BME280;26579;43.238;23.124;2023-02-15T09:03:39;98360.78;;;21.85;20.97
39411;BME280;26579;43.238;23.124;2023-02-15T09:06:06;98365.97;;;22.03;20.91
39411;BME280;26579;43.238;23.124;2023-02-15T09:08:32;98359.78;;;21.78;20.80
39411;BME280;26579;43.238;23.124;2023-02-15T09:11:10;98358.75;;;23.26;20.26
39411;BME280;26579;43.238;23.124;2023-02-15T09:13:37;98361.28;;;21.88;20.48
39411;BME280;26579;43.238;23.124;2023-02-15T09:16:05;98363.50;;;22.75;20.20
39411;BME280;26579;43.238;23.124;2023-02-15T09:18:34;98356.91;;;23.74;19.54
39411;BME280;26579;43.238;23.124;2023-02-15T09:21:08;98363.25;;;24.19;18.88
39411;BME280;26579;43.238;23.124;2023-02-15T09:23:34;98351.22;;;22.98;19.24
39411;BME280;26579;43.238;23.124;2023-02-15T09:26:07;98355.88;;;23.36;19.51
39411;BME280;26579;43.238;23.124;2023-02-15T09:28:33;98351.13;;;23.23;20.15
39411;BME280;26579;43.238;23.124;2023-02-15T09:31:11;98359.59;;;23.58;20.18
39411;BME280;26579;43.238;23.124;2023-02-15T09:33:38;98363.97;;;21.46;20.56
39411;BME280;26579;43.238;23.124;2023-02-15T09:36:13;98364.13;;;22.03;20.18
39411;BME280;26579;43.238;23.124;2023-02-15T09:38:39;98356.91;;;21.63;20.95
39411;BME280;26579;43.238;23.124;2023-02-15T09:47:08;98359.75;;;21.61;21.61
39411;BME280;26579;43.238;23.124;2023-02-15T09:52:09;98358.22;;;21.24;21.80
39411;BME280;26579;43.238;23.124;2023-02-15T10:00:49;98345.03;;;21.83;21.17
39411;BME280;26579;43.238;23.124;2023-02-15T10:03:23;98341.44;;;20.55;22.39
39411;BME280;26579;43.238;23.124;2023-02-15T10:06:05;98331.97;;;19.91;22.81
39411;BME280;26579;43.238;23.124;2023-02-15T10:11:24;98327.56;;;19.36;23.70
39411;BME280;26579;43.238;23.124;2023-02-15T10:17:08;98327.81;;;19.71;23.00
39411;BME280;26579;43.238;23.124;2023-02-15T10:27:50;98305.34;;;19.02;24.32
39411;BME280;26579;43.238;23.124;2023-02-15T10:33:02;98315.84;;;18.84;24.09
39411;BME280;26579;43.238;23.124;2023-02-15T10:41:01;98304.78;;;17.44;26.04
39411;BME280;26579;43.238;23.124;2023-02-15T10:47:11;98294.19;;;16.33;27.57
39411;BME280;26579;43.238;23.124;2023-02-15T10:52:47;98280.31;;;17.03;28.20
39411;BME280;26579;43.238;23.124;2023-02-15T11:04:05;98270.94;;;16.80;27.72
39411;BME280;26579;43.238;23.124;2023-02-15T11:06:36;98270.88;;;15.97;28.45
39411;BME280;26579;43.238;23.124;2023-02-15T11:09:10;98245.06;;;15.59;28.72
39411;BME280;26579;43.238;23.124;2023-02-15T11:11:39;98269.25;;;16.06;29.19
39411;BME280;26579;43.238;23.124;2023-02-15T11:16:41;98247.44;;;15.73;29.36
39411;BME280;26579;43.238;23.124;2023-02-15T11:19:15;98250.59;;;15.88;29.20
39411;BME280;26579;43.238;23.124;2023-02-15T11:21:46;98252.34;;;15.99;29.41
39411;BME280;26579;43.238;23.124;2023-02-15T11:24:16;98240.94;;;16.10;28.90
39411;BME280;26579;43.238;23.124;2023-02-15T11:26:54;98249.38;;;15.16;30.14
39411;BME280;26579;43.238;23.124;2023-02-15T11:30:10;98247.69;;;15.27;30.42
39411;BME280;26579;43.238;23.124;2023-02-15T11:32:50;98248.81;;;15.56;30.49
39411;BME280;26579;43.238;23.124;2023-02-15T11:37:51;98242.66;;;15.78;30.38
39411;BME280;26579;43.238;23.124;2023-02-15T11:42:47;98238.75;;;15.18;30.25
39411;BME280;26579;43.238;23.124;2023-02-15T11:45:33;98232.81;;;15.16;30.87
39411;BME280;26579;43.238;23.124;2023-02-15T11:48:00;98234.81;;;15.56;30.79
39411;BME280;26579;43.238;23.124;2023-02-15T11:50:29;98226.81;;;15.69;30.52
39411;BME280;26579;43.238;23.124;2023-02-15T11:53:02;98218.59;;;15.62;30.03
39411;BME280;26579;43.238;23.124;2023-02-15T11:55:30;98211.97;;;15.47;29.60
39411;BME280;26579;43.238;23.124;2023-02-15T11:58:06;98196.97;;;15.70;29.95
39411;BME280;26579;43.238;23.124;2023-02-15T12:00:39;98203.34;;;15.24;29.50
39411;BME280;26579;43.238;23.124;2023-02-15T12:03:28;98205.75;;;15.15;29.80
39411;BME280;26579;43.238;23.124;2023-02-15T12:06:02;98201.75;;;15.32;30.13
39411;BME280;26579;43.238;23.124;2023-02-15T12:08:40;98192.78;;;15.67;29.70
39411;BME280;26579;43.238;23.124;2023-02-15T12:11:11;98190.06;;;15.90;29.09
39411;BME280;26579;43.238;23.124;2023-02-15T12:16:19;98176.56;;;15.73;29.18
39411;BME280;26579;43.238;23.124;2023-02-15T12:18:47;98180.16;;;15.61;29.88
39411;BME280;26579;43.238;23.124;2023-02-15T12:21:34;98187.56;;;15.88;29.79
39411;BME280;26579;43.238;23.124;2023-02-15T12:26:40;98180.31;;;15.27;29.87
39411;BME280;26579;43.238;23.124;2023-02-15T12:29:15;98165.28;;;14.86;30.73
39411;BME280;26579;43.238;23.124;2023-02-15T12:31:44;98177.44;;;15.30;31.93
39411;BME280;26579;43.238;23.124;2023-02-15T12:34:23;98168.88;;;14.85;30.89
39411;BME280;26579;43.238;23.124;2023-02-15T12:36:55;98167.47;;;14.69;31.37
39411;BME280;26579;43.238;23.124;2023-02-15T12:39:26;98165.44;;;14.73;31.02
39411;BME280;26579;43.238;23.124;2023-02-15T12:47:05;98173.44;;;15.15;30.78
39411;BME280;26579;43.238;23.124;2023-02-15T12:52:02;98157.78;;;14.92;30.38
39411;BME280;26579;43.238;23.124;2023-02-15T12:57:25;98156.03;;;15.14;31.72
39411;BME280;26579;43.238;23.124;2023-02-15T13:00:12;98157.66;;;15.26;31.02
39411;BME280;26579;43.238;23.124;2023-02-15T13:02:52;98157.81;;;14.81;30.68
39411;BME280;26579;43.238;23.124;2023-02-15T13:05:44;98166.22;;;14.96;31.69
39411;BME280;26579;43.238;23.124;2023-02-15T13:08:21;98150.47;;;14.53;31.06
39411;BME280;26579;43.238;23.124;2023-02-15T13:10:58;98148.75;;;14.74;32.38
39411;BME280;26579;43.238;23.124;2023-02-15T13:13:30;98159.34;;;14.84;32.04
39411;BME280;26579;43.238;23.124;2023-02-15T13:16:04;98157.28;;;14.99;32.46
39411;BME280;26579;43.238;23.124;2023-02-15T13:18:42;98150.47;;;15.07;30.86
39411;BME280;26579;43.238;23.124;2023-02-15T13:21:10;98163.69;;;15.06;30.91
39411;BME280;26579;43.238;23.124;2023-02-15T13:23:38;98155.69;;;14.75;31.46
39411;BME280;26579;43.238;23.124;2023-02-15T13:26:12;98164.13;;;14.11;31.92
39411;BME280;26579;43.238;23.124;2023-02-15T13:28:45;98159.34;;;13.94;32.39
39411;BME280;26579;43.238;23.124;2023-02-15T13:31:14;98170.06;;;13.91;32.66
39411;BME280;26579;43.238;23.124;2023-02-15T13:33:44;98170.66;;;13.94;32.46
39411;BME280;26579;43.238;23.124;2023-02-15T13:36:27;98178.75;;;14.36;32.00
39411;BME280;26579;43.238;23.124;2023-02-15T13:41:58;98181.03;;;14.30;31.74
39411;BME280;26579;43.238;23.124;2023-02-15T13:52:23;98183.44;;;14.78;31.90
39411;BME280;26579;43.238;23.124;2023-02-15T14:07:02;98196.53;;;13.75;34.09
39411;BME280;26579;43.238;23.124;2023-02-15T14:12:21;98200.25;;;13.84;34.50
39411;BME280;26579;43.238;23.124;2023-02-15T14:25:34;98197.78;;;13.58;34.80
39411;BME280;26579;43.238;23.124;2023-02-15T14:28:27;98197.53;;;13.85;34.49
39411;BME280;26579;43.238;23.124;2023-02-15T14:30:49;98183.72;;;13.83;33.87
39411;BME280;26579;43.238;23.124;2023-02-15T14:33:38;98196.59;;;13.97;34.03
39411;BME280;26579;43.238;23.124;2023-02-15T14:36:06;98191.94;;;13.90;34.34
39411;BME280;26579;43.238;23.124;2023-02-15T14:39:02;98202.44;;;14.01;34.14
39411;BME280;26579;43.238;23.124;2023-02-15T14:41:45;98186.34;;;13.94;34.49
39411;BME280;26579;43.238;23.124;2023-02-15T14:44:37;98188.59;;;13.99;34.01
39411;BME280;26579;43.238;23.124;2023-02-15T14:47:09;98193.41;;;14.05;34.16
39411;BME280;26579;43.238;23.124;2023-02-15T14:49:38;98197.09;;;14.14;34.33
39411;BME280;26579;43.238;23.124;2023-02-15T14:52:11;98192.56;;;14.16;33.85
39411;BME280;26579;43.238;23.124;2023-02-15T15:07:45;98190.81;;;13.70;35.46
39411;BME280;26579;43.238;23.124;2023-02-15T15:12:44;98192.63;;;13.21;35.91
39411;BME280;26579;43.238;23.124;2023-02-15T15:18:10;98200.28;;;12.87;36.56
39411;BME280;26579;43.238;23.124;2023-02-15T15:20:57;98208.81;;;12.65;37.01
39411;BME280;26579;43.238;23.124;2023-02-15T15:31:32;98208.38;;;11.42;39.36
39411;BME280;26579;43.238;23.124;2023-02-15T15:37:01;98215.03;;;11.06;40.40
39411;BME280;26579;43.238;23.124;2023-02-15T15:45:44;98217.91;;;10.46;42.23
39411;BME280;26579;43.238;23.124;2023-02-15T15:48:30;98223.59;;;10.38;42.08
39411;BME280;26579;43.238;23.124;2023-02-15T15:51:03;98225.22;;;10.25;42.50
39411;BME280;26579;43.238;23.124;2023-02-15T15:53:37;98222.03;;;10.06;43.41
39411;BME280;26579;43.238;23.124;2023-02-15T15:56:08;98220.34;;;9.90;43.64
39411;BME280;26579;43.238;23.124;2023-02-15T15:58:37;98215.13;;;9.76;44.04
39411;BME280;26579;43.238;23.124;2023-02-15T16:01:09;98214.53;;;9.71;44.06
39411;BME280;26579;43.238;23.124;2023-02-15T16:03:35;98218.34;;;9.65;44.44
39411;BME280;26579;43.238;23.124;2023-02-15T16:06:01;98210.22;;;9.56;44.41
39411;BME280;26579;43.238;23.124;2023-02-15T16:10:54;98223.28;;;9.40;44.78
39411;BME280;26579;43.238;23.124;2023-02-15T16:13:20;98225.53;;;9.30;45.37